Fairfield, TX

4:32 AM CDT on May 06, 2015 (GMT -0500)
Palestine Municipal | | Change Station
CLOSE
Current Station
Airport
Location: Palestine,
Elevation: 423 ft
Nearby Weather Stations

Elev 423 ft 31.78 °N, 95.70 °W | Updated 17 minutes ago

Mostly Cloudy
Mostly Cloudy
69 °F
Feels Like 69 °F
N
6
Wind Variable Wind from SE

Today
High -- | Low -- °F
--% Chance of Precip.
Yesterday
High -- | Low -- °F
Precip. -- in
6:34 AM 8:08 PM
Waning Gibbous, 95% visible
Pressure 30.00 in
Visibility 10.0 miles
Clouds Mostly Cloudy 9000 ft
Dew Point 66 °F
Humidity 90%
Rainfall 0.00 in
Snow Depth Not available.
UV 0 out of 12
Pollen 5.90 out of 12
Air Quality Not available.
Flu Activity Sporadic
METAR KPSN 060915Z AUTO 14005KT 10SM BKN090 20/18 A3000 RMK AO2 T02050189

More Conditions Fewer Conditions

Pressure 30.00 in
Visibility 10.0 miles
Clouds Mostly Cloudy 9000 ft
Dew Point 66 °F
Humidity 90%
Rainfall 0.00 in
Snow Depth Not available.
UV 0 out of 12
Pollen 5.90 out of 12
Air Quality Not available.
Flu Activity Sporadic
METAR KPSN 060915Z AUTO 14005KT 10SM BKN090 20/18 A3000 RMK AO2 T02050189

More Conditions Fewer Conditions

Nowcast | as of 2:59 am CDT on May 6, 2015

Scattered showers and a few thunderstorms will continue across parts of North Texas through the early morning hours. The heaviest rainfall is currently occurring across western parts of Milam County with a slow moving cluster of showers and thunderstorms. Additional showers and thunderstorms are ongoing farther north from Gainesville to Sherman. Locally heavy rainfall and frequent cloud to ground lightning will be the main threats with any storms through the morning hours.

×

10-Day Weather Forecast

Almanac

Astronomy

May. 06, 2015 Rise Set
Actual Time
Civil Twilight
Nautical Twilight
Astronomical Twilight
Moon
Length of Visible Light
Length of Day
Tomorrow will be .
, % of the Moon is Illuminated

Today's Extremes

State Highs State Lows

Community

WunderPhotos

Upload Photos

1,818,859 photos uploaded!

WunderBlogs® & News

Nearby

Air Quality

  Air Quality AQ Index Pollutant
Not available.

Snow Depth

Station Depth Elevation

Earthquake Activity

City Distance Mag. Time & Date
Minimum magnitude displayed is 2.5.

Coastal Water Temperatures

Place Temperature

Stations

Nearby Weather Stations

Station Location Temp. Windchill Dew Point Humidity Wind Precip. Elev Updated Type